Club Med II — FNIR — position and weather

sailwx.info

Track history (hours):
 
Tides and Currents Weather Stations Pressure Air Temp Water Temp Dewpoint Dewpoint Depression Visibility Wind Speed Wind Dir Waves Ship Positions

Club Med II

Operator: V.Ships Leisure S.A.M

Last reported at 2017-Sep-20 20:57 UTC. Time now 2017-Sep-21 01:30 UTC.
Position N 43°26' E 007°41'.

Length 187 m; draft 5.2 m.

Type: Ship. MMSI: 227194000.

Date/timePositionNaut miles runAvg speedWind from/ knotsBaromVisibWave heightAir tempDewpointWater temp
2017-Sep-20 20:57N 43°26' E 007°41'4 8.2
2017-Sep-20 20:30N 43°28' E 007°37'7 8.5
2017-Sep-20 19:43N 43°32' E 007°30'3 8.8
2017-Sep-20 19:20N 43°35' E 007°26'3 8.5
2017-Sep-20 18:58N 43°37' E 007°23'6 0.2
2017-Sep-19 04:43N 43°41' E 007°17'39 7.7
2017-Sep-18 23:39N 43°37' E 008°11'1 8.8
2017-Sep-18 23:30N 43°37' E 008°12'4 8.9
2017-Sep-18 23:00N 43°40' E 008°17'5 8.9
2017-Sep-18 22:29N 43°43' E 008°22'4 8.9
2017-Sep-18 22:00N 43°45' E 008°27'710.4
2017-Sep-18 21:20N 43°50' E 008°34'310.2
2017-Sep-18 21:00N 43°52' E 008°38'5 9.9
2017-Sep-18 20:30N 43°55' E 008°43'5 9.8
2017-Sep-18 20:00N 43°59' E 008°48'5 9.6
2017-Sep-18 19:30N 44°02' E 008°53'5 9.4
2017-Sep-18 19:00N 44°05' E 008°58'5 9.3
2017-Sep-18 18:30N 44°08' E 009°03'611.3
2017-Sep-18 18:00N 44°11' E 009°09'611.8
2017-Sep-18 17:30N 44°15' E 009°15'3 6.2
2017-Sep-18 17:00N 44°18' E 009°14'0 0.6
2017-Sep-18 16:27N 44°19' E 009°14'0 0.1
2017-Sep-18 15:54N 44°19' E 009°14'0 0.0
2017-Sep-18 15:30N 44°19' E 009°14'0 0.0
2017-Sep-18 14:57N 44°19' E 009°14'0 0.0
2017-Sep-18 14:30N 44°19' E 009°14'0 0.0
2017-Sep-18 13:54N 44°19' E 009°14'0 0.1
2017-Sep-18 13:30N 44°19' E 009°14'0 0.0
2017-Sep-18 13:00N 44°19' E 009°14'0 0.0
2017-Sep-18 12:30N 44°19' E 009°14'0 0.0
2017-Sep-18 12:00N 44°19' E 009°14'0 0.0
2017-Sep-18 11:21N 44°19' E 009°14'0 0.1
2017-Sep-18 11:00N 44°19' E 009°14'0 0.1
2017-Sep-18 10:27N 44°19' E 009°14'0 0.0
2017-Sep-18 10:00N 44°19' E 009°14'0 0.0
2017-Sep-18 09:30N 44°19' E 009°14'0 0.3
2017-Sep-18 08:48N 44°19' E 009°14'0 0.1
2017-Sep-18 08:27N 44°19' E 009°14'0 0.1
2017-Sep-18 08:00N 44°19' E 009°14'0 0.0
2017-Sep-18 07:29N 44°19' E 009°14'0 0.0
2017-Sep-18 07:00N 44°19' E 009°14'0 0.2
2017-Sep-18 06:30N 44°19' E 009°14'3 4.3
2017-Sep-18 05:49N 44°17' E 009°17'411.4
2017-Sep-18 05:30N 44°13' E 009°16'611.4
2017-Sep-18 05:00N 44°08' E 009°15'611.9
2017-Sep-18 04:30N 44°02' E 009°14'612.0
2017-Sep-18 04:00N 43°56' E 009°13'612.1
2017-Sep-18 03:30N 43°50' E 009°12'612.5
2017-Sep-18 03:00N 43°44' E 009°10'612.4
2017-Sep-18 02:30N 43°38' E 009°08'612.4
2017-Sep-18 02:00N 43°32' E 009°06'612.7
2017-Sep-18 01:30N 43°26' E 009°03'612.7
2017-Sep-18 01:00N 43°19' E 009°01'612.7
2017-Sep-18 00:30N 43°13' E 008°59'73 2.5
2017-Sep-16 18:58N 43°35' E 007°23'8 0.6
2017-Sep-16 05:23N 43°41' E 007°17'3 7.4
2017-Sep-16 04:56N 43°39' E 007°21'510.5
2017-Sep-16 04:30N 43°38' E 007°27'4411.2
2017-Sep-16 00:34N 43°27' E 008°26'111.5
2017-Sep-16 00:30N 43°27' E 008°27'611.8
2017-Sep-16 00:00N 43°25' E 008°35'612.1
2017-Sep-15 23:30N 43°24' E 008°43'612.1
2017-Sep-15 23:00N 43°23' E 008°51'612.1
2017-Sep-15 22:28N 43°21' E 008°59'1312.3
2017-Sep-15 21:27N 43°18' E 009°16'613.2
2017-Sep-15 21:01N 43°16' E 009°24'713.4
2017-Sep-15 20:31N 43°14' E 009°32'713.2
2017-Sep-15 20:01N 43°13' E 009°41'713.0
2017-Sep-15 19:30N 43°11' E 009°50'612.6
2017-Sep-15 19:00N 43°08' E 009°58'612.8
2017-Sep-15 18:30N 43°03' E 010°04'612.9
2017-Sep-15 18:00N 42°59' E 010°10'13 5.1
2017-Sep-15 15:30N 42°49' E 010°20'0 0.0
2017-Sep-15 14:18N 42°48' E 010°20'0 0.1
2017-Sep-15 13:57N 42°48' E 010°20'0 0.0
2017-Sep-15 12:57N 42°48' E 010°20'0 0.0
2017-Sep-15 12:27N 42°48' E 010°20'0 0.0
2017-Sep-15 11:45N 42°48' E 010°20'0 0.1
2017-Sep-15 11:30N 42°48' E 010°20'9 1.2
2017-Sep-15 04:19N 42°52' E 010°10'3 8.6
2017-Sep-15 03:58N 42°51' E 010°05'29 8.2
2017-Sep-15 00:23N 42°24' E 009°51'  
Track history (hours):
 
Tides and Currents Weather Stations Pressure Air Temp Water Temp Dewpoint Dewpoint Depression Visibility Wind Speed Wind Dir Waves Ship Positions

Club Med II

Operator: V.Ships Leisure S.A.M

Last reported at 2017-Sep-20 20:57 UTC. Time now 2017-Sep-21 01:30 UTC.
Position N 43°26' E 007°41'.

Length 187 m; draft 5.2 m.

Type: Ship. MMSI: 227194000.

Date/timePositionNaut miles runAvg speedWind from/ knotsBaromVisibWave heightAir tempDewpointWater temp
2017-Sep-20 20:57N 43°26' E 007°41'4 8.2
2017-Sep-20 20:30N 43°28' E 007°37'7 8.5
2017-Sep-20 19:43N 43°32' E 007°30'3 8.8
2017-Sep-20 19:20N 43°35' E 007°26'3 8.5
2017-Sep-20 18:58N 43°37' E 007°23'6 0.2
2017-Sep-19 04:43N 43°41' E 007°17'39 7.7
2017-Sep-18 23:39N 43°37' E 008°11'1 8.8
2017-Sep-18 23:30N 43°37' E 008°12'4 8.9
2017-Sep-18 23:00N 43°40' E 008°17'5 8.9
2017-Sep-18 22:29N 43°43' E 008°22'4 8.9
2017-Sep-18 22:00N 43°45' E 008°27'710.4
2017-Sep-18 21:20N 43°50' E 008°34'310.2
2017-Sep-18 21:00N 43°52' E 008°38'5 9.9
2017-Sep-18 20:30N 43°55' E 008°43'5 9.8
2017-Sep-18 20:00N 43°59' E 008°48'5 9.6
2017-Sep-18 19:30N 44°02' E 008°53'5 9.4
2017-Sep-18 19:00N 44°05' E 008°58'5 9.3
2017-Sep-18 18:30N 44°08' E 009°03'611.3
2017-Sep-18 18:00N 44°11' E 009°09'611.8
2017-Sep-18 17:30N 44°15' E 009°15'3 6.2
2017-Sep-18 17:00N 44°18' E 009°14'0 0.6
2017-Sep-18 16:27N 44°19' E 009°14'0 0.1
2017-Sep-18 15:54N 44°19' E 009°14'0 0.0
2017-Sep-18 15:30N 44°19' E 009°14'0 0.0
2017-Sep-18 14:57N 44°19' E 009°14'0 0.0
2017-Sep-18 14:30N 44°19' E 009°14'0 0.0
2017-Sep-18 13:54N 44°19' E 009°14'0 0.1
2017-Sep-18 13:30N 44°19' E 009°14'0 0.0
2017-Sep-18 13:00N 44°19' E 009°14'0 0.0
2017-Sep-18 12:30N 44°19' E 009°14'0 0.0
2017-Sep-18 12:00N 44°19' E 009°14'0 0.0
2017-Sep-18 11:21N 44°19' E 009°14'0 0.1
2017-Sep-18 11:00N 44°19' E 009°14'0 0.1
2017-Sep-18 10:27N 44°19' E 009°14'0 0.0
2017-Sep-18 10:00N 44°19' E 009°14'0 0.0
2017-Sep-18 09:30N 44°19' E 009°14'0 0.3
2017-Sep-18 08:48N 44°19' E 009°14'0 0.1
2017-Sep-18 08:27N 44°19' E 009°14'0 0.1
2017-Sep-18 08:00N 44°19' E 009°14'0 0.0
2017-Sep-18 07:29N 44°19' E 009°14'0 0.0
2017-Sep-18 07:00N 44°19' E 009°14'0 0.2
2017-Sep-18 06:30N 44°19' E 009°14'3 4.3
2017-Sep-18 05:49N 44°17' E 009°17'411.4
2017-Sep-18 05:30N 44°13' E 009°16'611.4
2017-Sep-18 05:00N 44°08' E 009°15'611.9
2017-Sep-18 04:30N 44°02' E 009°14'612.0
2017-Sep-18 04:00N 43°56' E 009°13'612.1
2017-Sep-18 03:30N 43°50' E 009°12'612.5
2017-Sep-18 03:00N 43°44' E 009°10'612.4
2017-Sep-18 02:30N 43°38' E 009°08'612.4
2017-Sep-18 02:00N 43°32' E 009°06'612.7
2017-Sep-18 01:30N 43°26' E 009°03'612.7
2017-Sep-18 01:00N 43°19' E 009°01'612.7
2017-Sep-18 00:30N 43°13' E 008°59'73 2.5
2017-Sep-16 18:58N 43°35' E 007°23'8 0.6
2017-Sep-16 05:23N 43°41' E 007°17'3 7.4
2017-Sep-16 04:56N 43°39' E 007°21'510.5
2017-Sep-16 04:30N 43°38' E 007°27'4411.2
2017-Sep-16 00:34N 43°27' E 008°26'111.5
2017-Sep-16 00:30N 43°27' E 008°27'611.8
2017-Sep-16 00:00N 43°25' E 008°35'612.1
2017-Sep-15 23:30N 43°24' E 008°43'612.1
2017-Sep-15 23:00N 43°23' E 008°51'612.1
2017-Sep-15 22:28N 43°21' E 008°59'1312.3
2017-Sep-15 21:27N 43°18' E 009°16'613.2
2017-Sep-15 21:01N 43°16' E 009°24'713.4
2017-Sep-15 20:31N 43°14' E 009°32'713.2
2017-Sep-15 20:01N 43°13' E 009°41'713.0
2017-Sep-15 19:30N 43°11' E 009°50'612.6
2017-Sep-15 19:00N 43°08' E 009°58'612.8
2017-Sep-15 18:30N 43°03' E 010°04'612.9
2017-Sep-15 18:00N 42°59' E 010°10'13 5.1
2017-Sep-15 15:30N 42°49' E 010°20'0 0.0
2017-Sep-15 14:18N 42°48' E 010°20'0 0.1
2017-Sep-15 13:57N 42°48' E 010°20'0 0.0
2017-Sep-15 12:57N 42°48' E 010°20'0 0.0
2017-Sep-15 12:27N 42°48' E 010°20'0 0.0
2017-Sep-15 11:45N 42°48' E 010°20'0 0.1
2017-Sep-15 11:30N 42°48' E 010°20'9 1.2
2017-Sep-15 04:19N 42°52' E 010°10'3 8.6
2017-Sep-15 03:58N 42°51' E 010°05'29 8.2
2017-Sep-15 00:23N 42°24' E 009°51'  

Dump ship's entire track history